Hdms Esbern Snare — OUFB — position and weather

sailwx.info

Track history (hours):
 
Tides and Currents Weather Stations Pressure Air Temp Water Temp Dewpoint Dewpoint Depression Visibility Wind Speed Wind Dir Waves Ship Positions

Hdms Esbern Snare

Last reported at 2017-Nov-17 06:42 UTC. Time now 2017-Nov-18 04:47 UTC.
Position N 57°26' E 010°43'.

Length 137 m.

Type: Military. MMSI: 36699999.

Date/timePositionNaut miles runAvg speedWind from/ knotsBaromVisibWave heightAir tempDewpointWater temp
2017-Nov-17 06:42N 57°26' E 010°43'1 7.1
2017-Nov-17 06:30N 57°27' E 010°43'4 7.6
2017-Nov-17 06:00N 57°31' E 010°44'4 7.3
2017-Nov-17 05:30N 57°34' E 010°44'3 5.6
2017-Nov-17 04:55N 57°34' E 010°50'3 7.2
2017-Nov-17 04:30N 57°32' E 010°54'3 6.7
2017-Nov-17 04:01N 57°30' E 010°59'3 5.3
2017-Nov-17 03:30N 57°33' E 011°01'3 5.6
2017-Nov-17 03:00N 57°34' E 010°56'3 5.7
2017-Nov-17 02:30N 57°35' E 010°51'3 6.3
2017-Nov-17 02:00N 57°37' E 010°46'3 6.4
2017-Nov-17 01:29N 57°40' E 010°45'3 7.1
2017-Nov-17 01:00N 57°43' E 010°45'4 7.5
2017-Nov-17 00:29N 57°47' E 010°43'4 8.9
2017-Nov-17 00:00N 57°47' E 010°35'9 0.4
2017-Nov-16 03:18N 57°50' E 010°20'615.7
2017-Nov-16 02:55N 57°49' E 010°31'615.1
2017-Nov-16 02:30N 57°49' E 010°43'714.6
2017-Nov-16 02:00N 57°45' E 010°54'815.0
2017-Nov-16 01:30N 57°39' E 011°05'715.3
2017-Nov-16 01:00N 57°34' E 011°15'815.6
2017-Nov-16 00:31N 57°29' E 011°25'815.7
2017-Nov-16 00:00N 57°21' E 011°30'815.8
2017-Nov-15 23:30N 57°14' E 011°35'816.1
2017-Nov-15 23:00N 57°07' E 011°41'3715.5
2017-Nov-15 20:37N 56°30' E 011°38'7411.2
2017-Nov-15 14:00N 55°19' E 011°03'815.6
2017-Nov-15 13:30N 55°12' E 011°09'3 6.5
2017-Nov-15 13:00N 55°12' E 011°15'814.9
2017-Nov-15 12:28N 55°18' E 011°05'0 0.8
2017-Nov-15 11:58N 55°18' E 011°06'1 0.9
2017-Nov-15 11:16N 55°17' E 011°05'3 3.7
2017-Nov-15 10:21N 55°17' E 010°59'1 2.4
2017-Nov-15 10:00N 55°16' E 010°60'2 2.6
2017-Nov-15 09:11N 55°14' E 010°57'1 5.1
2017-Nov-15 08:59N 55°15' E 010°58'2 3.0
2017-Nov-15 08:25N 55°17' E 010°59'1 2.2
2017-Nov-15 07:49N 55°16' E 010°59'1 3.3
2017-Nov-15 07:30N 55°17' E 010°59'2 2.4
2017-Nov-15 06:50N 55°15' E 011°01'1210.3
2017-Nov-15 05:40N 55°03' E 011°03'213.6
2017-Nov-15 05:30N 55°01' E 011°02'713.2
2017-Nov-15 05:00N 54°56' E 010°56'713.5
2017-Nov-15 04:30N 54°49' E 010°53'713.5
2017-Nov-15 04:00N 54°43' E 010°53'713.2
2017-Nov-15 03:30N 54°39' E 010°44'611.5
2017-Nov-15 03:00N 54°38' E 010°34'713.2
2017-Nov-15 02:30N 54°40' E 010°23'7 3.9
2017-Nov-15 00:44N 54°39' E 010°35'313.1
2017-Nov-15 00:29N 54°37' E 010°40'612.1
2017-Nov-15 00:01N 54°42' E 010°46'611.5
2017-Nov-14 23:31N 54°47' E 010°49'612.1
2017-Nov-14 23:01N 54°53' E 010°51'510.9
2017-Nov-14 22:31N 54°58' E 010°56'5 9.5
2017-Nov-14 22:01N 55°02' E 010°60'5 9.9
2017-Nov-14 21:31N 55°07' E 010°59'5 9.0
2017-Nov-14 21:00N 55°11' E 011°03'8 5.2
2017-Nov-14 19:33N 55°19' E 011°04'0 1.8
2017-Nov-14 19:25N 55°19' E 011°04'108 5.0
2017-Nov-13 21:51N 57°04' E 011°37'95 4.3
2017-Nov-12 23:56N 57°42' E 008°56'511.8
2017-Nov-12 23:30N 57°42' E 008°47'53 4.1
2017-Nov-12 10:34N 57°51' E 010°24'321.5
2017-Nov-12 10:27N 57°52' E 010°28'7 5.3
2017-Nov-12 09:06N 57°48' E 010°40'314.7
2017-Nov-12 08:54N 57°47' E 010°44'614.4
2017-Nov-12 08:30N 57°41' E 010°46'815.6
2017-Nov-12 08:00N 57°33' E 010°45'815.9
2017-Nov-12 07:31N 57°26' E 010°40'3 4.9
2017-Nov-12 07:00N 57°24' E 010°36'2 3.8
2017-Nov-12 06:30N 57°26' E 010°38'5 9.5
2017-Nov-12 06:00N 57°30' E 010°43'714.5
2017-Nov-12 05:30N 57°37' E 010°45'714.8
2017-Nov-12 05:00N 57°44' E 010°46'511.1
2017-Nov-12 04:31N 57°46' E 010°36'9616.0
2017-Nov-11 22:30N 57°42' E 007°36'816.9
2017-Nov-11 22:00N 57°42' E 007°21'916.4
2017-Nov-11 21:26N 57°42' E 007°03'716.6
2017-Nov-11 20:59N 57°43' E 006°49'816.4
2017-Nov-11 20:29N 57°44' E 006°34'816.3
2017-Nov-11 20:00N 57°49' E 006°22'816.6
2017-Nov-11 19:30N 57°54' E 006°10'816.9
2017-Nov-11 19:00N 57°60' E 005°58'4717.0
2017-Nov-11 16:14N 58°30' E 004°50'35916.6
2017-Nov-10 18:34N 61°45' W 005°17'216.3
2017-Nov-10 18:27N 61°45' W 005°21'716.2
2017-Nov-10 18:00N 61°47' W 005°35'816.4
2017-Nov-10 17:31N 61°49' W 005°52'815.5
2017-Nov-10 17:00N 61°53' W 006°06'917.1
2017-Nov-10 16:31N 61°57' W 006°22'917.6
2017-Nov-10 16:01N 62°02' W 006°38'3 6.4
2017-Nov-10 15:30N 61°59' W 006°41'0 0.9
2017-Nov-10 15:00N 61°59' W 006°42'1 2.3
2017-Nov-10 14:31N 61°58' W 006°42'1 2.9
2017-Nov-10 14:00N 61°59' W 006°42'1 1.6
2017-Nov-10 13:30N 61°60' W 006°43'1 1.1
2017-Nov-10 13:00N 62°01' W 006°43'0 0.4
2017-Nov-10 12:30N 62°01' W 006°43'1 1.2
2017-Nov-10 12:00N 62°00' W 006°42'1 2.3
2017-Nov-10 11:30N 61°59' W 006°42'1 2.9
2017-Nov-10 11:01N 61°58' W 006°41'1 2.0
2017-Nov-10 10:30N 61°59' W 006°42'1 2.4
2017-Nov-10 10:00N 61°60' W 006°42'1 1.7
2017-Nov-10 09:30N 62°01' W 006°43'1 1.2
2017-Nov-10 09:00N 62°00' W 006°42'1 1.5
2017-Nov-10 08:30N 61°59' W 006°43'0 0.5
2017-Nov-10 08:00N 61°59' W 006°43'0 0.5
2017-Nov-10 07:30N 61°59' W 006°43'1 1.4
2017-Nov-10 07:00N 61°59' W 006°42'3 5.4
2017-Nov-10 06:30N 61°56' W 006°42'3 7.0
2017-Nov-10 06:00N 61°60' W 006°43'2 3.2
2017-Nov-10 05:30N 62°01' W 006°43'2 4.6
2017-Nov-10 05:00N 61°59' W 006°42'2 3.2
2017-Nov-10 04:30N 61°58' W 006°43'3 6.6
2017-Nov-10 04:00N 62°01' W 006°43'2 3.3
2017-Nov-10 03:30N 61°59' W 006°42'1 1.1
2017-Nov-10 03:00N 61°59' W 006°43'2 4.0
2017-Nov-10 02:30N 62°01' W 006°44'1 1.9
2017-Nov-10 02:00N 62°01' W 006°42'2 3.0
2017-Nov-10 01:30N 61°59' W 006°42'2 4.3
2017-Nov-10 01:00N 61°57' W 006°42'2 4.8
2017-Nov-10 00:30N 61°59' W 006°42'2 4.3
2017-Nov-10 00:00N 62°02' W 006°43'3 5.9
2017-Nov-09 23:30N 61°59' W 006°42'1 1.1
2017-Nov-09 23:00N 61°58' W 006°42'3 5.8
2017-Nov-09 22:30N 62°01' W 006°43'2 3.4
2017-Nov-09 22:00N 62°01' W 006°40'3 5.1
2017-Nov-09 21:30N 61°59' W 006°37'2 4.9
2017-Nov-09 21:00N 61°57' W 006°34'2 4.1
2017-Nov-09 20:30N 61°56' W 006°37'3 5.8
2017-Nov-09 20:00N 61°58' W 006°41'2 4.1
2017-Nov-09 19:31N 61°60' W 006°43'1 1.1
2017-Nov-09 19:00N 61°59' W 006°43'713.3
2017-Nov-09 18:30N 61°53' W 006°36'815.9
2017-Nov-09 18:00N 61°46' W 006°33'612.7
2017-Nov-09 17:30N 61°43' W 006°46'713.8
2017-Nov-09 17:00N 61°47' W 006°59'611.4
2017-Nov-09 16:30N 61°48' W 007°11'1 2.8
2017-Nov-09 16:00N 61°49' W 007°11'3 3.6
2017-Nov-09 15:05N 61°46' W 007°07'7 6.0
2017-Nov-09 13:59N 61°42' W 006°56'4 7.2
2017-Nov-09 13:26N 61°41' W 006°48'614.1
2017-Nov-09 13:00N 61°40' W 006°36'4 7.7
2017-Nov-09 12:30N 61°42' W 006°28'5 9.3
2017-Nov-09 12:00N 61°46' W 006°30'4 7.3
2017-Nov-09 11:29N 61°49' W 006°34'3 7.2
2017-Nov-09 11:00N 61°53' W 006°35'510.2
2017-Nov-09 10:30N 61°57' W 006°41'3 6.3
2017-Nov-09 10:01N 61°60' W 006°44'2 3.4
2017-Nov-09 09:30N 62°01' W 006°43'3 5.2
2017-Nov-09 09:00N 61°59' W 006°42'3 5.2
2017-Nov-09 08:30N 62°01' W 006°43'1 1.8
2017-Nov-09 08:00N 62°00' W 006°42'3 5.1
2017-Nov-09 07:30N 61°58' W 006°42'1 1.3
2017-Nov-09 07:00N 61°58' W 006°43'3 6.5
2017-Nov-09 06:30N 62°01' W 006°43'2 4.7
2017-Nov-09 06:00N 61°59' W 006°42'3 5.7
2017-Nov-09 05:30N 61°56' W 006°43'3 6.4
2017-Nov-09 05:00N 61°59' W 006°43'2 4.4
2017-Nov-09 04:30N 62°01' W 006°43'3 5.7
2017-Nov-09 04:00N 61°58' W 006°42'1 2.7
2017-Nov-09 03:30N 61°60' W 006°43'1 1.6
2017-Nov-09 03:00N 62°00' W 006°43'4 8.8
2017-Nov-09 02:30N 61°56' W 006°42'5 9.1
2017-Nov-09 02:00N 62°01' W 006°43'4 7.4
2017-Nov-09 01:30N 61°57' W 006°42'5 9.8
2017-Nov-09 01:00N 62°02' W 006°42'5 9.8
2017-Nov-09 00:30N 62°03' W 006°32'5 9.5
2017-Nov-09 00:00N 62°04' W 006°22'3 5.4
2017-Nov-08 23:30N 62°06' W 006°17'713.3
2017-Nov-08 23:00N 62°05' W 006°31'3 6.3
2017-Nov-08 22:31N 62°03' W 006°28'1 1.7
2017-Nov-08 22:01N 62°02' W 006°29'612.6
2017-Nov-08 21:31N 61°57' W 006°24'3 6.7
2017-Nov-08 21:01N 61°59' W 006°20'714.6
2017-Nov-08 20:31N 61°57' W 006°05'4 7.9
2017-Nov-08 20:01N 61°59' W 006°12'816.2
2017-Nov-08 19:30N 62°05' W 006°00'13 5.5
2017-Nov-08 17:10N 62°16' W 005°44'314.8
2017-Nov-08 16:58N 62°15' W 005°50'714.8
2017-Nov-08 16:30N 62°12' W 006°04'3 6.0
2017-Nov-08 16:00N 62°11' W 005°57'5 9.2
2017-Nov-08 15:27N 62°16' W 005°56'11 3.0
2017-Nov-08 11:55N 62°14' W 006°18'410.6
2017-Nov-08 11:31N 62°10' W 006°24'611.1
2017-Nov-08 11:01N 62°05' W 006°29'3 6.2
2017-Nov-08 10:31N 62°05' W 006°23'3 6.5
2017-Nov-08 10:01N 62°02' W 006°26'5 9.1
2017-Nov-08 09:30N 61°57' W 006°30'611.0
2017-Nov-08 09:01N 61°58' W 006°41'3 6.2
2017-Nov-08 08:31N 62°01' W 006°44'0 0.4
2017-Nov-08 08:01N 62°00' W 006°45'2 3.2
2017-Nov-08 07:30N 62°02' W 006°43'3 6.3
2017-Nov-08 07:00N 61°59' W 006°42'1 1.5
2017-Nov-08 06:30N 61°60' W 006°42'3 5.7
2017-Nov-08 06:01N 62°02' W 006°43'3 5.0
2017-Nov-08 05:30N 61°60' W 006°43'2 3.5
2017-Nov-08 05:00N 61°58' W 006°42'3 6.9
2017-Nov-08 04:30N 62°02' W 006°43'1 1.5
2017-Nov-08 04:00N 62°02' W 006°42'2 4.0
2017-Nov-08 03:30N 62°00' W 006°43'2 3.7
2017-Nov-08 03:00N 61°58' W 006°42'1 2.7
2017-Nov-08 02:30N 61°57' W 006°41'2 4.5
2017-Nov-08 02:00N 61°59' W 006°42'3 6.7
2017-Nov-08 01:30N 62°03' W 006°40'3 5.7
2017-Nov-08 01:01N 62°05' W 006°38'612.0
2017-Nov-08 00:29N 62°11' W 006°36'1316.4
2017-Nov-07 23:43N 62°24' W 006°43'11 4.3
2017-Nov-07 21:08N 62°35' W 006°43'6 1.6
2017-Nov-07 17:42N 62°37' W 006°55'415.6
2017-Nov-07 17:28N 62°35' W 007°02'511.4
2017-Nov-07 17:00N 62°34' W 007°13'510.8
2017-Nov-07 16:30N 62°37' W 007°04'2 3.2
2017-Nov-07 15:55N 62°36' W 007°08'511.9
2017-Nov-07 15:31N 62°41' W 007°08'815.4
2017-Nov-07 14:59N 62°48' W 006°59'1 2.6
2017-Nov-07 14:29N 62°49' W 007°00'814.5
2017-Nov-07 13:56N 62°42' W 007°04'9 3.4
2017-Nov-07 11:22N 62°33' W 007°10'513.3
2017-Nov-07 11:00N 62°29' W 007°03'714.6
2017-Nov-07 10:30N 62°23' W 006°55'714.4
2017-Nov-07 10:00N 62°17' W 006°47'612.4
2017-Nov-07 09:30N 62°12' W 006°38'713.5
2017-Nov-07 09:00N 62°06' W 006°35'4 7.4
2017-Nov-07 08:30N 62°03' W 006°39'3 6.1
2017-Nov-07 08:00N 62°00' W 006°43'1 1.3
2017-Nov-07 07:30N 61°60' W 006°43'2 4.4
2017-Nov-07 07:00N 62°02' W 006°43'  
Track history (hours):
 
Tides and Currents Weather Stations Pressure Air Temp Water Temp Dewpoint Dewpoint Depression Visibility Wind Speed Wind Dir Waves Ship Positions

Hdms Esbern Snare

Last reported at 2017-Nov-17 06:42 UTC. Time now 2017-Nov-18 04:47 UTC.
Position N 57°26' E 010°43'.

Length 137 m.

Type: Military. MMSI: 36699999.

Date/timePositionNaut miles runAvg speedWind from/ knotsBaromVisibWave heightAir tempDewpointWater temp
2017-Nov-17 06:42N 57°26' E 010°43'1 7.1
2017-Nov-17 06:30N 57°27' E 010°43'4 7.6
2017-Nov-17 06:00N 57°31' E 010°44'4 7.3
2017-Nov-17 05:30N 57°34' E 010°44'3 5.6
2017-Nov-17 04:55N 57°34' E 010°50'3 7.2
2017-Nov-17 04:30N 57°32' E 010°54'3 6.7
2017-Nov-17 04:01N 57°30' E 010°59'3 5.3
2017-Nov-17 03:30N 57°33' E 011°01'3 5.6
2017-Nov-17 03:00N 57°34' E 010°56'3 5.7
2017-Nov-17 02:30N 57°35' E 010°51'3 6.3
2017-Nov-17 02:00N 57°37' E 010°46'3 6.4
2017-Nov-17 01:29N 57°40' E 010°45'3 7.1
2017-Nov-17 01:00N 57°43' E 010°45'4 7.5
2017-Nov-17 00:29N 57°47' E 010°43'4 8.9
2017-Nov-17 00:00N 57°47' E 010°35'9 0.4
2017-Nov-16 03:18N 57°50' E 010°20'615.7
2017-Nov-16 02:55N 57°49' E 010°31'615.1
2017-Nov-16 02:30N 57°49' E 010°43'714.6
2017-Nov-16 02:00N 57°45' E 010°54'815.0
2017-Nov-16 01:30N 57°39' E 011°05'715.3
2017-Nov-16 01:00N 57°34' E 011°15'815.6
2017-Nov-16 00:31N 57°29' E 011°25'815.7
2017-Nov-16 00:00N 57°21' E 011°30'815.8
2017-Nov-15 23:30N 57°14' E 011°35'816.1
2017-Nov-15 23:00N 57°07' E 011°41'3715.5
2017-Nov-15 20:37N 56°30' E 011°38'7411.2
2017-Nov-15 14:00N 55°19' E 011°03'815.6
2017-Nov-15 13:30N 55°12' E 011°09'3 6.5
2017-Nov-15 13:00N 55°12' E 011°15'814.9
2017-Nov-15 12:28N 55°18' E 011°05'0 0.8
2017-Nov-15 11:58N 55°18' E 011°06'1 0.9
2017-Nov-15 11:16N 55°17' E 011°05'3 3.7
2017-Nov-15 10:21N 55°17' E 010°59'1 2.4
2017-Nov-15 10:00N 55°16' E 010°60'2 2.6
2017-Nov-15 09:11N 55°14' E 010°57'1 5.1
2017-Nov-15 08:59N 55°15' E 010°58'2 3.0
2017-Nov-15 08:25N 55°17' E 010°59'1 2.2
2017-Nov-15 07:49N 55°16' E 010°59'1 3.3
2017-Nov-15 07:30N 55°17' E 010°59'2 2.4
2017-Nov-15 06:50N 55°15' E 011°01'1210.3
2017-Nov-15 05:40N 55°03' E 011°03'213.6
2017-Nov-15 05:30N 55°01' E 011°02'713.2
2017-Nov-15 05:00N 54°56' E 010°56'713.5
2017-Nov-15 04:30N 54°49' E 010°53'713.5
2017-Nov-15 04:00N 54°43' E 010°53'713.2
2017-Nov-15 03:30N 54°39' E 010°44'611.5
2017-Nov-15 03:00N 54°38' E 010°34'713.2
2017-Nov-15 02:30N 54°40' E 010°23'7 3.9
2017-Nov-15 00:44N 54°39' E 010°35'313.1
2017-Nov-15 00:29N 54°37' E 010°40'612.1
2017-Nov-15 00:01N 54°42' E 010°46'611.5
2017-Nov-14 23:31N 54°47' E 010°49'612.1
2017-Nov-14 23:01N 54°53' E 010°51'510.9
2017-Nov-14 22:31N 54°58' E 010°56'5 9.5
2017-Nov-14 22:01N 55°02' E 010°60'5 9.9
2017-Nov-14 21:31N 55°07' E 010°59'5 9.0
2017-Nov-14 21:00N 55°11' E 011°03'8 5.2
2017-Nov-14 19:33N 55°19' E 011°04'0 1.8
2017-Nov-14 19:25N 55°19' E 011°04'108 5.0
2017-Nov-13 21:51N 57°04' E 011°37'95 4.3
2017-Nov-12 23:56N 57°42' E 008°56'511.8
2017-Nov-12 23:30N 57°42' E 008°47'53 4.1
2017-Nov-12 10:34N 57°51' E 010°24'321.5
2017-Nov-12 10:27N 57°52' E 010°28'7 5.3
2017-Nov-12 09:06N 57°48' E 010°40'314.7
2017-Nov-12 08:54N 57°47' E 010°44'614.4
2017-Nov-12 08:30N 57°41' E 010°46'815.6
2017-Nov-12 08:00N 57°33' E 010°45'815.9
2017-Nov-12 07:31N 57°26' E 010°40'3 4.9
2017-Nov-12 07:00N 57°24' E 010°36'2 3.8
2017-Nov-12 06:30N 57°26' E 010°38'5 9.5
2017-Nov-12 06:00N 57°30' E 010°43'714.5
2017-Nov-12 05:30N 57°37' E 010°45'714.8
2017-Nov-12 05:00N 57°44' E 010°46'511.1
2017-Nov-12 04:31N 57°46' E 010°36'9616.0
2017-Nov-11 22:30N 57°42' E 007°36'816.9
2017-Nov-11 22:00N 57°42' E 007°21'916.4
2017-Nov-11 21:26N 57°42' E 007°03'716.6
2017-Nov-11 20:59N 57°43' E 006°49'816.4
2017-Nov-11 20:29N 57°44' E 006°34'816.3
2017-Nov-11 20:00N 57°49' E 006°22'816.6
2017-Nov-11 19:30N 57°54' E 006°10'816.9
2017-Nov-11 19:00N 57°60' E 005°58'4717.0
2017-Nov-11 16:14N 58°30' E 004°50'35916.6
2017-Nov-10 18:34N 61°45' W 005°17'216.3
2017-Nov-10 18:27N 61°45' W 005°21'716.2
2017-Nov-10 18:00N 61°47' W 005°35'816.4
2017-Nov-10 17:31N 61°49' W 005°52'815.5
2017-Nov-10 17:00N 61°53' W 006°06'917.1
2017-Nov-10 16:31N 61°57' W 006°22'917.6
2017-Nov-10 16:01N 62°02' W 006°38'3 6.4
2017-Nov-10 15:30N 61°59' W 006°41'0 0.9
2017-Nov-10 15:00N 61°59' W 006°42'1 2.3
2017-Nov-10 14:31N 61°58' W 006°42'1 2.9
2017-Nov-10 14:00N 61°59' W 006°42'1 1.6
2017-Nov-10 13:30N 61°60' W 006°43'1 1.1
2017-Nov-10 13:00N 62°01' W 006°43'0 0.4
2017-Nov-10 12:30N 62°01' W 006°43'1 1.2
2017-Nov-10 12:00N 62°00' W 006°42'1 2.3
2017-Nov-10 11:30N 61°59' W 006°42'1 2.9
2017-Nov-10 11:01N 61°58' W 006°41'1 2.0
2017-Nov-10 10:30N 61°59' W 006°42'1 2.4
2017-Nov-10 10:00N 61°60' W 006°42'1 1.7
2017-Nov-10 09:30N 62°01' W 006°43'1 1.2
2017-Nov-10 09:00N 62°00' W 006°42'1 1.5
2017-Nov-10 08:30N 61°59' W 006°43'0 0.5
2017-Nov-10 08:00N 61°59' W 006°43'0 0.5
2017-Nov-10 07:30N 61°59' W 006°43'1 1.4
2017-Nov-10 07:00N 61°59' W 006°42'3 5.4
2017-Nov-10 06:30N 61°56' W 006°42'3 7.0
2017-Nov-10 06:00N 61°60' W 006°43'2 3.2
2017-Nov-10 05:30N 62°01' W 006°43'2 4.6
2017-Nov-10 05:00N 61°59' W 006°42'2 3.2
2017-Nov-10 04:30N 61°58' W 006°43'3 6.6
2017-Nov-10 04:00N 62°01' W 006°43'2 3.3
2017-Nov-10 03:30N 61°59' W 006°42'1 1.1
2017-Nov-10 03:00N 61°59' W 006°43'2 4.0
2017-Nov-10 02:30N 62°01' W 006°44'1 1.9
2017-Nov-10 02:00N 62°01' W 006°42'2 3.0
2017-Nov-10 01:30N 61°59' W 006°42'2 4.3
2017-Nov-10 01:00N 61°57' W 006°42'2 4.8
2017-Nov-10 00:30N 61°59' W 006°42'2 4.3
2017-Nov-10 00:00N 62°02' W 006°43'3 5.9
2017-Nov-09 23:30N 61°59' W 006°42'1 1.1
2017-Nov-09 23:00N 61°58' W 006°42'3 5.8
2017-Nov-09 22:30N 62°01' W 006°43'2 3.4
2017-Nov-09 22:00N 62°01' W 006°40'3 5.1
2017-Nov-09 21:30N 61°59' W 006°37'2 4.9
2017-Nov-09 21:00N 61°57' W 006°34'2 4.1
2017-Nov-09 20:30N 61°56' W 006°37'3 5.8
2017-Nov-09 20:00N 61°58' W 006°41'2 4.1
2017-Nov-09 19:31N 61°60' W 006°43'1 1.1
2017-Nov-09 19:00N 61°59' W 006°43'713.3
2017-Nov-09 18:30N 61°53' W 006°36'815.9
2017-Nov-09 18:00N 61°46' W 006°33'612.7
2017-Nov-09 17:30N 61°43' W 006°46'713.8
2017-Nov-09 17:00N 61°47' W 006°59'611.4
2017-Nov-09 16:30N 61°48' W 007°11'1 2.8
2017-Nov-09 16:00N 61°49' W 007°11'3 3.6
2017-Nov-09 15:05N 61°46' W 007°07'7 6.0
2017-Nov-09 13:59N 61°42' W 006°56'4 7.2
2017-Nov-09 13:26N 61°41' W 006°48'614.1
2017-Nov-09 13:00N 61°40' W 006°36'4 7.7
2017-Nov-09 12:30N 61°42' W 006°28'5 9.3
2017-Nov-09 12:00N 61°46' W 006°30'4 7.3
2017-Nov-09 11:29N 61°49' W 006°34'3 7.2
2017-Nov-09 11:00N 61°53' W 006°35'510.2
2017-Nov-09 10:30N 61°57' W 006°41'3 6.3
2017-Nov-09 10:01N 61°60' W 006°44'2 3.4
2017-Nov-09 09:30N 62°01' W 006°43'3 5.2
2017-Nov-09 09:00N 61°59' W 006°42'3 5.2
2017-Nov-09 08:30N 62°01' W 006°43'1 1.8
2017-Nov-09 08:00N 62°00' W 006°42'3 5.1
2017-Nov-09 07:30N 61°58' W 006°42'1 1.3
2017-Nov-09 07:00N 61°58' W 006°43'3 6.5
2017-Nov-09 06:30N 62°01' W 006°43'2 4.7
2017-Nov-09 06:00N 61°59' W 006°42'3 5.7
2017-Nov-09 05:30N 61°56' W 006°43'3 6.4
2017-Nov-09 05:00N 61°59' W 006°43'2 4.4
2017-Nov-09 04:30N 62°01' W 006°43'3 5.7
2017-Nov-09 04:00N 61°58' W 006°42'1 2.7
2017-Nov-09 03:30N 61°60' W 006°43'1 1.6
2017-Nov-09 03:00N 62°00' W 006°43'4 8.8
2017-Nov-09 02:30N 61°56' W 006°42'5 9.1
2017-Nov-09 02:00N 62°01' W 006°43'4 7.4
2017-Nov-09 01:30N 61°57' W 006°42'5 9.8
2017-Nov-09 01:00N 62°02' W 006°42'5 9.8
2017-Nov-09 00:30N 62°03' W 006°32'5 9.5
2017-Nov-09 00:00N 62°04' W 006°22'3 5.4
2017-Nov-08 23:30N 62°06' W 006°17'713.3
2017-Nov-08 23:00N 62°05' W 006°31'3 6.3
2017-Nov-08 22:31N 62°03' W 006°28'1 1.7
2017-Nov-08 22:01N 62°02' W 006°29'612.6
2017-Nov-08 21:31N 61°57' W 006°24'3 6.7
2017-Nov-08 21:01N 61°59' W 006°20'714.6
2017-Nov-08 20:31N 61°57' W 006°05'4 7.9
2017-Nov-08 20:01N 61°59' W 006°12'816.2
2017-Nov-08 19:30N 62°05' W 006°00'13 5.5
2017-Nov-08 17:10N 62°16' W 005°44'314.8
2017-Nov-08 16:58N 62°15' W 005°50'714.8
2017-Nov-08 16:30N 62°12' W 006°04'3 6.0
2017-Nov-08 16:00N 62°11' W 005°57'5 9.2
2017-Nov-08 15:27N 62°16' W 005°56'11 3.0
2017-Nov-08 11:55N 62°14' W 006°18'410.6
2017-Nov-08 11:31N 62°10' W 006°24'611.1
2017-Nov-08 11:01N 62°05' W 006°29'3 6.2
2017-Nov-08 10:31N 62°05' W 006°23'3 6.5
2017-Nov-08 10:01N 62°02' W 006°26'5 9.1
2017-Nov-08 09:30N 61°57' W 006°30'611.0
2017-Nov-08 09:01N 61°58' W 006°41'3 6.2
2017-Nov-08 08:31N 62°01' W 006°44'0 0.4
2017-Nov-08 08:01N 62°00' W 006°45'2 3.2
2017-Nov-08 07:30N 62°02' W 006°43'3 6.3
2017-Nov-08 07:00N 61°59' W 006°42'1 1.5
2017-Nov-08 06:30N 61°60' W 006°42'3 5.7
2017-Nov-08 06:01N 62°02' W 006°43'3 5.0
2017-Nov-08 05:30N 61°60' W 006°43'2 3.5
2017-Nov-08 05:00N 61°58' W 006°42'3 6.9
2017-Nov-08 04:30N 62°02' W 006°43'1 1.5
2017-Nov-08 04:00N 62°02' W 006°42'2 4.0
2017-Nov-08 03:30N 62°00' W 006°43'2 3.7
2017-Nov-08 03:00N 61°58' W 006°42'1 2.7
2017-Nov-08 02:30N 61°57' W 006°41'2 4.5
2017-Nov-08 02:00N 61°59' W 006°42'3 6.7
2017-Nov-08 01:30N 62°03' W 006°40'3 5.7
2017-Nov-08 01:01N 62°05' W 006°38'612.0
2017-Nov-08 00:29N 62°11' W 006°36'1316.4
2017-Nov-07 23:43N 62°24' W 006°43'11 4.3
2017-Nov-07 21:08N 62°35' W 006°43'6 1.6
2017-Nov-07 17:42N 62°37' W 006°55'415.6
2017-Nov-07 17:28N 62°35' W 007°02'511.4
2017-Nov-07 17:00N 62°34' W 007°13'510.8
2017-Nov-07 16:30N 62°37' W 007°04'2 3.2
2017-Nov-07 15:55N 62°36' W 007°08'511.9
2017-Nov-07 15:31N 62°41' W 007°08'815.4
2017-Nov-07 14:59N 62°48' W 006°59'1 2.6
2017-Nov-07 14:29N 62°49' W 007°00'814.5
2017-Nov-07 13:56N 62°42' W 007°04'9 3.4
2017-Nov-07 11:22N 62°33' W 007°10'513.3
2017-Nov-07 11:00N 62°29' W 007°03'714.6
2017-Nov-07 10:30N 62°23' W 006°55'714.4
2017-Nov-07 10:00N 62°17' W 006°47'612.4
2017-Nov-07 09:30N 62°12' W 006°38'713.5
2017-Nov-07 09:00N 62°06' W 006°35'4 7.4
2017-Nov-07 08:30N 62°03' W 006°39'3 6.1
2017-Nov-07 08:00N 62°00' W 006°43'1 1.3
2017-Nov-07 07:30N 61°60' W 006°43'2 4.4
2017-Nov-07 07:00N 62°02' W 006°43'  

Dump ship's entire track history